Time;durP1;ratioP1;P1;durP2;ratioP2;P2;SDS_P1;SDS_P2;PMS_P1;PMS_P2;Temp;Humidity;BMP_temperature;BMP_pressure;BME280_temperature;BME280_humidity;BME280_pressure;Samples;Min_cycle;Max_cycle;Signal;HPM_P1;HPM_P2
2022/12/06 00:04:16;;;;;;;12.10;5.78;;;6.80;99.90;;;;;;10130498;28;20378;-62
2022/12/06 00:09:07;;;;;;;7.00;3.78;;;6.80;99.90;;;;;;10143599;28;20047;-62
2022/12/06 00:14:03;;;;;;;7.40;4.88;;;6.70;99.90;;;;;;10142405;28;20101;-62
2022/12/06 00:18:54;;;;;;;9.38;4.65;;;6.40;99.90;;;;;;10145406;28;20111;-61
2022/12/06 00:23:52;;;;;;;8.27;4.10;;;6.50;99.90;;;;;;10125051;28;20120;-61
2022/12/06 00:28:43;;;;;;;7.00;4.22;;;6.50;99.90;;;;;;10143036;28;20398;-61
2022/12/06 00:33:35;;;;;;;8.35;4.60;;;6.60;99.90;;;;;;10138560;28;20444;-62
2022/12/06 00:38:27;;;;;;;7.55;4.05;;;6.60;99.90;;;;;;10143699;28;20513;-62
2022/12/06 00:43:18;;;;;;;6.95;4.05;;;6.60;99.90;;;;;;10142525;28;20017;-63
2022/12/06 00:48:08;;;;;;;7.60;4.20;;;6.60;99.90;;;;;;10143276;28;20032;-62
2022/12/06 00:52:59;;;;;;;7.70;4.00;;;6.60;99.90;;;;;;10142896;28;20075;-62
2022/12/06 00:57:50;;;;;;;7.78;4.07;;;6.60;99.90;;;;;;10141964;28;20044;-62
2022/12/06 01:02:40;;;;;;;8.38;4.13;;;6.50;99.90;;;;;;10141623;28;20286;-63
2022/12/06 01:07:31;;;;;;;6.85;3.72;;;6.40;99.90;;;;;;10141395;28;20474;-62
2022/12/06 01:12:21;;;;;;;7.28;4.10;;;6.40;99.90;;;;;;10140381;28;20024;-63
2022/12/06 01:17:12;;;;;;;7.70;4.43;;;6.40;99.90;;;;;;10138439;28;20145;-61
2022/12/06 01:22:03;;;;;;;11.23;4.57;;;6.40;99.90;;;;;;10141178;28;20069;-61
2022/12/06 01:26:53;;;;;;;8.07;4.85;;;6.40;99.90;;;;;;10140831;28;20511;-62
2022/12/06 01:31:44;;;;;;;10.27;4.53;;;6.40;99.90;;;;;;10140301;28;20082;-61
2022/12/06 01:36:34;;;;;;;10.75;5.15;;;6.50;99.90;;;;;;10122700;28;20119;-61
2022/12/06 01:41:27;;;;;;;7.47;4.63;;;6.40;99.90;;;;;;10140445;28;20382;-62
2022/12/06 01:46:29;;;;;;;7.97;4.97;;;6.50;99.90;;;;;;10141373;28;20246;-61
2022/12/06 01:51:20;;;;;;;11.57;5.95;;;6.50;99.90;;;;;;10142012;28;20062;-62
2022/12/06 01:56:11;;;;;;;8.88;4.82;;;6.60;99.90;;;;;;10138261;28;20048;-62
2022/12/06 02:01:02;;;;;;;6.68;3.55;;;6.50;99.90;;;;;;10136319;28;20048;-63
2022/12/06 02:05:55;;;;;;;13.20;4.53;;;6.50;99.90;;;;;;10133947;28;20260;-62
2022/12/06 02:10:45;;;;;;;6.93;4.13;;;6.60;99.90;;;;;;10136206;28;20024;-63
2022/12/06 02:16:04;;;;;;;7.40;3.95;;;6.50;99.90;;;;;;10136052;28;20510;-62
2022/12/06 02:21:16;;;;;;;5.05;3.60;;;6.40;99.90;;;;;;10130171;28;20071;-62
2022/12/06 02:26:15;;;;;;;8.05;4.03;;;6.30;99.90;;;;;;10138455;28;20498;-63
2022/12/06 02:31:22;;;;;;;9.73;4.03;;;6.40;99.90;;;;;;10135621;28;20102;-62
2022/12/06 02:36:37;;;;;;;7.65;3.92;;;6.40;99.90;;;;;;10132452;28;20032;-63
2022/12/06 02:41:34;;;;;;;6.93;3.78;;;6.40;99.90;;;;;;10135590;28;20119;-63
2022/12/06 02:46:28;;;;;;;7.90;4.30;;;6.40;99.90;;;;;;10138026;28;20490;-63
2022/12/06 02:51:20;;;;;;;11.23;4.65;;;6.30;99.90;;;;;;10136838;28;20060;-62
2022/12/06 02:56:14;;;;;;;8.50;4.20;;;6.30;99.90;;;;;;10138052;28;20049;-63
2022/12/06 03:01:27;;;;;;;7.43;4.63;;;6.50;99.90;;;;;;10136202;28;20056;-62
2022/12/06 03:06:26;;;;;;;10.05;4.80;;;6.50;99.90;;;;;;10133757;28;20128;-62
2022/12/06 03:11:17;;;;;;;8.40;5.18;;;6.40;99.90;;;;;;10134441;28;20047;-62
2022/12/06 03:16:48;;;;;;;10.45;5.28;;;6.30;99.90;;;;;;10121719;28;20429;-62
2022/12/06 03:21:45;;;;;;;9.15;5.00;;;6.20;99.90;;;;;;10100893;28;20044;-62
2022/12/06 03:26:38;;;;;;;9.32;5.63;;;6.20;99.90;;;;;;10097378;28;20061;-62
2022/12/06 03:31:31;;;;;;;8.57;4.82;;;6.10;99.90;;;;;;10124270;28;20133;-62
2022/12/06 03:36:24;;;;;;;7.30;3.75;;;6.20;99.90;;;;;;10112430;28;20064;-61
2022/12/06 03:41:17;;;;;;;7.88;4.22;;;6.30;99.90;;;;;;10120059;28;20040;-62
2022/12/06 03:46:25;;;;;;;7.20;4.43;;;6.40;99.90;;;;;;10108901;28;20033;-61
2022/12/06 03:51:21;;;;;;;6.80;4.13;;;6.30;99.90;;;;;;10098751;28;20025;-63
2022/12/06 03:56:13;;;;;;;10.07;5.20;;;6.20;99.90;;;;;;10129811;28;20564;-63
2022/12/06 04:01:03;;;;;;;8.63;4.35;;;6.30;99.90;;;;;;10129064;28;20581;-61
2022/12/06 04:05:54;;;;;;;9.38;5.57;;;6.30;99.90;;;;;;10131169;28;20100;-62
2022/12/06 04:10:45;;;;;;;7.95;4.50;;;6.40;99.90;;;;;;10133996;28;20033;-61
2022/12/06 04:15:37;;;;;;;10.45;5.13;;;6.50;99.90;;;;;;10134683;28;20031;-62
2022/12/06 04:23:02;;;;;;;8.00;4.20;;;6.40;99.90;;;;;;10135497;28;20028;-62
2022/12/06 04:25:39;;;;;;;9.55;5.53;;;6.50;99.90;;;;;;10135480;28;20021;-61
2022/12/06 04:40:48;;;;;;;8.40;4.57;;;6.40;99.90;;;;;;10135454;28;20031;-62
2022/12/06 04:45:39;;;;;;;7.72;5.15;;;6.40;99.90;;;;;;10137158;28;20479;-61
2022/12/06 04:50:29;;;;;;;11.32;4.70;;;6.40;99.90;;;;;;10135435;28;20464;-62
2022/12/06 04:55:20;;;;;;;8.60;4.28;;;6.30;99.90;;;;;;10140750;28;20105;-61
2022/12/06 05:00:11;;;;;;;9.27;5.53;;;6.40;99.90;;;;;;10142557;28;20111;-62
2022/12/06 05:05:02;;;;;;;9.73;5.20;;;6.40;99.90;;;;;;10141899;28;20029;-61
2022/12/06 05:09:53;;;;;;;11.05;5.18;;;6.40;99.90;;;;;;10141473;28;20044;-61
2022/12/06 05:14:43;;;;;;;7.38;4.50;;;6.30;99.90;;;;;;10139149;28;20379;-61
2022/12/06 05:19:34;;;;;;;10.40;5.47;;;6.30;99.90;;;;;;10141520;28;20035;-62
2022/12/06 05:24:24;;;;;;;9.43;5.40;;;6.30;99.90;;;;;;10141546;28;20024;-62
2022/12/06 05:29:15;;;;;;;10.90;4.80;;;6.10;99.90;;;;;;10144656;28;20047;-62
2022/12/06 05:34:06;;;;;;;10.00;5.35;;;6.10;99.90;;;;;;10137304;28;20078;-62
2022/12/06 05:38:56;;;;;;;9.15;5.28;;;6.10;99.90;;;;;;10140519;28;20032;-61
2022/12/06 05:43:47;;;;;;;8.15;5.18;;;6.20;99.90;;;;;;10140559;28;20413;-62
2022/12/06 05:48:37;;;;;;;7.75;4.40;;;6.30;99.90;;;;;;10140125;28;20455;-62
2022/12/06 05:53:28;;;;;;;9.07;5.30;;;6.30;99.90;;;;;;10121788;28;20444;-62
2022/12/06 05:58:19;;;;;;;8.82;4.75;;;6.20;99.90;;;;;;10139725;28;20564;-61
2022/12/06 06:03:10;;;;;;;8.85;5.40;;;6.20;99.90;;;;;;10137082;28;20082;-62
2022/12/06 06:08:00;;;;;;;10.55;5.38;;;6.20;99.90;;;;;;10137742;28;20036;-63
2022/12/06 06:12:52;;;;;;;9.43;5.32;;;6.10;99.90;;;;;;10135625;28;20140;-61
2022/12/06 06:17:42;;;;;;;11.57;5.93;;;6.10;99.90;;;;;;10135631;28;20025;-62
2022/12/06 06:22:35;;;;;;;9.57;5.85;;;6.20;99.90;;;;;;10134000;28;20036;-62
2022/12/06 06:27:26;;;;;;;12.13;6.13;;;6.00;99.90;;;;;;10136918;28;20394;-62
2022/12/06 06:32:17;;;;;;;8.93;5.63;;;5.90;99.90;;;;;;10136478;28;20028;-62
2022/12/06 06:37:08;;;;;;;9.88;4.97;;;5.80;99.90;;;;;;10135030;28;20032;-62
2022/12/06 06:41:58;;;;;;;13.77;6.22;;;6.00;99.90;;;;;;10137342;28;20035;-62
2022/12/06 06:46:49;;;;;;;11.65;6.05;;;5.90;99.90;;;;;;10137307;28;20178;-62
2022/12/06 06:51:39;;;;;;;10.32;5.65;;;5.90;99.90;;;;;;10136892;28;20028;-61
2022/12/06 06:56:30;;;;;;;9.68;5.63;;;6.10;99.90;;;;;;10137878;28;20523;-61
2022/12/06 07:01:23;;;;;;;10.32;5.90;;;6.10;99.90;;;;;;10137451;28;20028;-62
2022/12/06 07:06:13;;;;;;;9.23;5.45;;;6.20;99.90;;;;;;10138262;28;20028;-63
2022/12/06 07:11:04;;;;;;;10.93;5.68;;;6.10;99.90;;;;;;10137105;28;20122;-62
2022/12/06 07:15:57;;;;;;;8.93;5.85;;;6.00;99.90;;;;;;10128499;28;20081;-61
2022/12/06 07:20:56;;;;;;;8.65;5.88;;;6.00;99.90;;;;;;10137310;28;20100;-61
2022/12/06 07:25:46;;;;;;;13.98;7.47;;;6.00;99.90;;;;;;10136893;28;20050;-62
2022/12/06 07:30:37;;;;;;;8.50;5.30;;;5.90;99.90;;;;;;10136619;28;20499;-61
2022/12/06 07:35:28;;;;;;;9.85;4.75;;;5.80;99.90;;;;;;10133269;28;20586;-62
2022/12/06 07:40:18;;;;;;;8.45;4.47;;;5.80;99.90;;;;;;10133777;28;20044;-65
2022/12/06 07:45:11;;;;;;;5.07;3.55;;;5.70;99.90;;;;;;10120140;28;20076;-68
2022/12/06 07:50:05;;;;;;;7.60;3.42;;;5.70;99.90;;;;;;10125466;28;20043;-62
2022/12/06 07:54:55;;;;;;;6.90;2.72;;;5.60;99.90;;;;;;10125491;28;20047;-63
2022/12/06 07:59:46;;;;;;;8.82;3.60;;;5.60;99.90;;;;;;10127150;28;20056;-62
2022/12/06 08:04:36;;;;;;;5.40;2.70;;;5.60;99.90;;;;;;10129437;28;20551;-65
2022/12/06 08:09:27;;;;;;;4.85;2.83;;;5.70;99.90;;;;;;10131703;28;20044;-64
2022/12/06 08:14:18;;;;;;;5.75;2.88;;;5.70;99.90;;;;;;10115029;28;20175;-64
2022/12/06 08:19:08;;;;;;;5.57;3.30;;;5.80;99.90;;;;;;10133697;28;20054;-63
2022/12/06 08:23:59;;;;;;;5.15;2.90;;;5.70;99.90;;;;;;10133454;28;20232;-62
2022/12/06 08:28:50;;;;;;;4.47;2.83;;;5.70;99.90;;;;;;10139010;28;20083;-63
2022/12/06 08:33:41;;;;;;;8.48;2.72;;;5.80;99.90;;;;;;10141376;28;20025;-67
2022/12/06 08:38:31;;;;;;;6.43;3.25;;;5.70;99.90;;;;;;10140587;28;20055;-62
2022/12/06 08:43:22;;;;;;;8.23;3.65;;;5.80;99.90;;;;;;10150729;28;20070;-61
2022/12/06 08:48:13;;;;;;;7.57;3.65;;;5.80;99.90;;;;;;10127077;28;20422;-66
2022/12/06 08:53:03;;;;;;;5.68;2.97;;;5.60;99.90;;;;;;10129114;28;20054;-64
2022/12/06 08:57:54;;;;;;;4.95;2.80;;;5.60;99.90;;;;;;10134545;28;20431;-64
2022/12/06 09:02:45;;;;;;;5.75;3.15;;;5.60;99.90;;;;;;10109849;28;20107;-61
2022/12/06 09:07:35;;;;;;;6.28;3.50;;;5.50;99.90;;;;;;10089260;28;20106;-62
2022/12/06 09:12:26;;;;;;;5.00;3.17;;;5.50;99.90;;;;;;10114920;28;20508;-65
2022/12/06 09:17:16;;;;;;;8.07;3.60;;;5.60;99.90;;;;;;10087147;28;20020;-60
2022/12/06 09:22:07;;;;;;;7.95;3.20;;;5.60;99.90;;;;;;10094243;28;20021;-63
2022/12/06 09:26:58;;;;;;;5.45;3.22;;;5.60;99.90;;;;;;10110968;28;20537;-64
2022/12/06 09:31:48;;;;;;;7.65;4.65;;;5.80;99.90;;;;;;10109334;28;20029;-63
2022/12/06 09:36:53;;;;;;;6.65;3.60;;;5.90;99.90;;;;;;10115241;28;20403;-67
2022/12/06 09:41:50;;;;;;;7.65;3.90;;;5.80;99.90;;;;;;10105943;28;20046;-65
2022/12/06 09:46:49;;;;;;;5.20;2.95;;;5.80;99.90;;;;;;10107277;28;20582;-67
2022/12/06 09:51:59;;;;;;;6.28;3.78;;;5.80;99.90;;;;;;10099772;28;20025;-63
2022/12/06 09:57:00;;;;;;;6.03;3.40;;;5.90;99.90;;;;;;10108697;28;20055;-60
2022/12/06 10:01:50;;;;;;;6.05;3.63;;;6.00;99.90;;;;;;10112195;28;20194;-61
2022/12/06 10:06:56;;;;;;;6.55;3.47;;;6.00;99.90;;;;;;10110157;28;20259;-64
2022/12/06 10:12:08;;;;;;;7.13;3.13;;;6.00;99.90;;;;;;10111006;28;20020;-65
2022/12/06 10:17:13;;;;;;;4.28;2.75;;;6.10;99.90;;;;;;10133502;28;20453;-63
2022/12/06 10:22:47;;;;;;;5.82;3.60;;;6.20;99.90;;;;;;10136701;28;20024;-64
2022/12/06 10:27:41;;;;;;;4.68;2.35;;;6.40;99.90;;;;;;10138244;28;20482;-64
2022/12/06 10:33:04;;;;;;;4.90;2.78;;;6.40;99.90;;;;;;10135691;28;20033;-62
2022/12/06 10:38:02;;;;;;;7.28;3.50;;;6.50;99.90;;;;;;10114776;28;20033;-62
2022/12/06 10:43:02;;;;;;;5.70;3.70;;;6.60;99.90;;;;;;10133667;28;20020;-61
2022/12/06 10:47:58;;;;;;;6.35;3.10;;;6.70;99.90;;;;;;10122130;28;20047;-62
2022/12/06 10:52:58;;;;;;;4.87;2.93;;;6.70;99.90;;;;;;10136647;28;20024;-63
2022/12/06 10:58:14;;;;;;;9.68;4.03;;;6.70;99.90;;;;;;10117425;28;20048;-62
2022/12/06 11:03:23;;;;;;;4.23;2.57;;;6.70;99.90;;;;;;10125275;28;20040;-62
2022/12/06 11:08:26;;;;;;;8.68;3.75;;;6.60;99.90;;;;;;10131278;28;20078;-62
2022/12/06 11:13:42;;;;;;;8.27;3.58;;;6.60;99.90;;;;;;10123356;28;20619;-64
2022/12/06 11:18:34;;;;;;;8.40;3.80;;;6.70;99.90;;;;;;10133911;28;20107;-64
2022/12/06 11:23:32;;;;;;;7.35;3.83;;;6.70;99.90;;;;;;10135043;28;20115;-65
2022/12/06 11:28:58;;;;;;;6.93;3.83;;;6.50;99.90;;;;;;10135617;28;20036;-64
2022/12/06 11:33:49;;;;;;;4.90;2.72;;;6.50;99.90;;;;;;10125017;28;20556;-65
2022/12/06 11:38:43;;;;;;;9.20;4.05;;;6.60;99.90;;;;;;10135898;28;20036;-66
2022/12/06 11:43:34;;;;;;;5.25;3.60;;;6.40;99.90;;;;;;10132749;28;20049;-65
2022/12/06 11:48:27;;;;;;;7.32;3.85;;;6.30;99.90;;;;;;10083447;28;20033;-66
2022/12/06 11:53:24;;;;;;;5.85;3.50;;;6.20;99.90;;;;;;10096770;28;20060;-66
2022/12/06 11:58:24;;;;;;;8.52;4.07;;;6.30;99.90;;;;;;10125233;28;20052;-65
2022/12/06 12:03:30;;;;;;;10.48;4.88;;;6.40;99.90;;;;;;10140520;28;20422;-65
2022/12/06 12:08:21;;;;;;;9.52;4.72;;;6.30;99.90;;;;;;10143359;28;20032;-66
2022/12/06 12:18:34;;;;;;;6.97;4.13;;;6.40;99.90;;;;;;10105156;28;20086;-65
2022/12/06 12:23:32;;;;;;;8.80;4.68;;;6.30;99.90;;;;;;10110908;28;20486;-69
2022/12/06 12:28:26;;;;;;;5.50;3.47;;;6.50;99.90;;;;;;10108958;28;20041;-65
2022/12/06 12:33:19;;;;;;;8.68;4.28;;;6.50;99.90;;;;;;10107873;28;20482;-65
2022/12/06 12:38:10;;;;;;;7.72;4.85;;;6.70;99.90;;;;;;10109395;28;20028;-66
2022/12/06 12:43:11;;;;;;;7.03;3.40;;;6.60;99.90;;;;;;10110376;28;20028;-66
2022/12/06 12:48:19;;;;;;;8.25;3.05;;;6.60;99.90;;;;;;10106790;28;20044;-66
2022/12/06 12:53:45;;;;;;;8.80;4.38;;;6.50;99.90;;;;;;10107511;28;20017;-66
2022/12/06 12:58:36;;;;;;;7.40;3.70;;;6.40;99.90;;;;;;10109087;28;20041;-65
2022/12/06 13:03:28;;;;;;;7.65;4.43;;;6.50;99.90;;;;;;10109169;28;20013;-66
2022/12/06 13:08:23;;;;;;;6.80;3.80;;;6.50;99.90;;;;;;10092162;28;20123;-66
2022/12/06 13:13:19;;;;;;;6.75;3.65;;;6.50;99.90;;;;;;10102881;28;20115;-66
2022/12/06 13:18:12;;;;;;;;;;;6.50;99.90;;;;;;10114910;28;20127;-66
2022/12/06 13:23:19;;;;;;;6.05;3.50;;;6.40;99.90;;;;;;10107924;28;19912;-66
2022/12/06 13:28:18;;;;;;;6.65;3.67;;;6.40;99.90;;;;;;10110795;28;20028;-66
2022/12/06 13:33:20;;;;;;;11.80;4.57;;;6.40;99.90;;;;;;10138077;28;20025;-66
2022/12/06 13:38:17;;;;;;;6.22;3.90;;;6.60;99.90;;;;;;10109135;28;20079;-66
2022/12/06 13:43:22;;;;;;;5.97;3.42;;;6.60;99.90;;;;;;10128498;28;20028;-67
2022/12/06 13:48:28;;;;;;;7.20;4.10;;;6.50;99.90;;;;;;10140395;28;20037;-65
2022/12/06 13:53:21;;;;;;;9.00;4.60;;;6.40;99.90;;;;;;10119637;28;20123;-65
2022/12/06 13:58:14;;;;;;;8.88;5.65;;;6.40;99.90;;;;;;10128131;28;20630;-66
2022/12/06 14:03:17;;;;;;;6.63;4.10;;;6.40;99.90;;;;;;10139780;28;20498;-66
2022/12/06 14:08:12;;;;;;;11.20;4.80;;;6.40;99.90;;;;;;10139839;28;20135;-66
2022/12/06 14:13:03;;;;;;;9.45;5.15;;;6.30;99.90;;;;;;10124404;28;20498;-64
2022/12/06 14:17:54;;;;;;;8.38;3.97;;;6.30;99.90;;;;;;10107392;28;20098;-66
2022/12/06 14:22:47;;;;;;;8.32;4.55;;;6.30;99.90;;;;;;10105200;28;20544;-64
2022/12/06 14:27:46;;;;;;;9.43;3.97;;;6.20;99.90;;;;;;10107975;28;20048;-66
2022/12/06 14:32:41;;;;;;;6.60;3.92;;;6.10;99.90;;;;;;10129373;28;20135;-64
2022/12/06 14:37:33;;;;;;;6.10;3.85;;;6.10;99.90;;;;;;10138687;28;20075;-64
2022/12/06 14:47:33;;;;;;;8.60;4.35;;;6.00;99.90;;;;;;10137883;28;20071;-62
2022/12/06 14:52:29;;;;;;;6.70;3.58;;;6.20;99.90;;;;;;10137849;28;20028;-63
2022/12/06 14:57:25;;;;;;;8.65;5.47;;;6.20;99.90;;;;;;10125206;28;20421;-63
2022/12/06 15:02:27;;;;;;;6.35;3.75;;;6.20;99.90;;;;;;10131554;28;20024;-63
2022/12/06 15:07:50;;;;;;;7.97;3.92;;;6.20;99.90;;;;;;10136532;28;20055;-62
2022/12/06 15:12:56;;;;;;;6.80;4.22;;;6.20;99.90;;;;;;10107653;28;20048;-66
2022/12/06 15:17:47;;;;;;;7.53;3.90;;;6.10;99.90;;;;;;10134884;28;20025;-65
2022/12/06 15:22:45;;;;;;;6.18;3.90;;;6.10;99.90;;;;;;10136504;28;20050;-66
2022/12/06 15:27:35;;;;;;;6.80;3.55;;;6.10;99.90;;;;;;10124663;28;20029;-66
2022/12/06 15:32:26;;;;;;;9.73;4.55;;;6.10;99.90;;;;;;10103944;28;20028;-67
2022/12/06 15:37:17;;;;;;;8.27;4.10;;;6.10;99.90;;;;;;10108792;28;20044;-66
2022/12/06 15:42:26;;;;;;;9.25;5.25;;;6.00;99.90;;;;;;10106615;28;20074;-66
2022/12/06 15:47:18;;;;;;;8.90;4.07;;;6.00;99.90;;;;;;10087563;28;20068;-64
2022/12/06 15:52:17;;;;;;;9.95;4.40;;;6.00;99.90;;;;;;10105741;28;20402;-63
2022/12/06 15:57:07;;;;;;;10.35;5.28;;;5.90;99.90;;;;;;10103329;28;20053;-62
2022/12/06 16:01:58;;;;;;;8.60;4.50;;;5.90;99.90;;;;;;10104287;28;20078;-62
2022/12/06 16:06:49;;;;;;;8.40;4.00;;;5.90;99.90;;;;;;10101603;28;20108;-63
2022/12/06 16:11:40;;;;;;;8.52;4.82;;;5.90;99.90;;;;;;10111900;28;20025;-63
2022/12/06 16:16:32;;;;;;;10.90;5.25;;;6.00;99.90;;;;;;10105081;28;20034;-63
2022/12/06 16:21:47;;;;;;;10.80;5.57;;;5.90;99.90;;;;;;10103350;28;20467;-64
2022/12/06 16:26:43;;;;;;;8.20;4.90;;;5.90;99.90;;;;;;10080765;28;20735;-63
2022/12/06 16:31:33;;;;;;;;;;;5.80;99.90;;;;;;10105461;28;20576;-66
2022/12/06 16:36:31;;;;;;;8.02;4.35;;;5.80;99.90;;;;;;10118757;28;19962;-67
2022/12/06 16:41:34;;;;;;;9.80;4.47;;;5.90;99.90;;;;;;10121843;28;20116;-68
2022/12/06 16:46:28;;;;;;;12.13;5.70;;;5.90;99.90;;;;;;10100174;28;20025;-66
2022/12/06 16:51:19;;;;;;;7.38;4.80;;;5.90;99.90;;;;;;10104486;28;20029;-68
2022/12/06 16:56:09;;;;;;;14.85;6.80;;;6.00;99.90;;;;;;10133792;28;20048;-63
2022/12/06 17:01:03;;;;;;;13.95;7.20;;;5.90;99.90;;;;;;10130631;28;20104;-68
2022/12/06 17:05:54;;;;;;;10.38;6.28;;;5.90;99.90;;;;;;10123711;28;20026;-68
2022/12/06 17:10:45;;;;;;;20.73;9.10;;;5.90;99.90;;;;;;10139829;28;20126;-68
2022/12/06 17:15:36;;;;;;;11.40;5.97;;;5.80;99.90;;;;;;10140581;28;20352;-66
2022/12/06 17:20:26;;;;;;;16.85;8.63;;;5.80;99.90;;;;;;10112160;28;20043;-68
2022/12/06 17:25:18;;;;;;;13.20;7.13;;;5.80;99.90;;;;;;10117128;28;20033;-67
2022/12/06 17:30:16;;;;;;;17.55;7.53;;;5.90;99.90;;;;;;10129510;28;20559;-68
2022/12/06 17:35:08;;;;;;;18.35;6.75;;;6.00;99.90;;;;;;10138596;28;20020;-67
2022/12/06 17:39:58;;;;;;;13.60;6.38;;;5.90;99.90;;;;;;10137212;28;20111;-67
2022/12/06 17:44:50;;;;;;;16.63;6.93;;;5.90;99.90;;;;;;10138055;28;20069;-68
2022/12/06 17:49:41;;;;;;;13.90;6.43;;;5.80;99.90;;;;;;10136447;28;20027;-68
2022/12/06 17:54:32;;;;;;;10.52;6.22;;;5.80;99.90;;;;;;10141148;28;20036;-66
2022/12/06 17:59:25;;;;;;;14.88;6.35;;;5.80;99.90;;;;;;10139052;28;20031;-67
2022/12/06 18:04:16;;;;;;;14.20;7.25;;;5.80;99.90;;;;;;10133988;28;20021;-67
2022/12/06 18:09:10;;;;;;;11.70;6.95;;;5.90;99.90;;;;;;10140274;28;20032;-67
2022/12/06 18:14:02;;;;;;;12.85;6.72;;;5.80;99.90;;;;;;10118786;28;20079;-66
2022/12/06 18:18:56;;;;;;;16.30;7.10;;;5.90;99.90;;;;;;10138755;28;20200;-66
2022/12/06 18:23:51;;;;;;;18.67;6.93;;;5.80;99.90;;;;;;10139402;28;20024;-66
2022/12/06 18:28:44;;;;;;;13.48;6.63;;;5.80;99.90;;;;;;10137277;28;20039;-68
2022/12/06 18:33:36;;;;;;;16.25;7.60;;;5.80;99.90;;;;;;10137256;28;20021;-67
2022/12/06 18:38:27;;;;;;;16.75;8.38;;;5.70;99.90;;;;;;10133455;28;20024;-66
2022/12/06 18:43:18;;;;;;;15.20;7.32;;;5.60;99.90;;;;;;10126734;28;20033;-67
2022/12/06 18:48:08;;;;;;;13.70;6.30;;;5.70;99.90;;;;;;10112284;28;20522;-67
2022/12/06 18:53:00;;;;;;;14.52;7.13;;;5.60;99.90;;;;;;10113755;28;20025;-67
2022/12/06 18:57:51;;;;;;;15.00;7.82;;;5.70;99.90;;;;;;10133371;28;20450;-68
2022/12/06 19:02:41;;;;;;;11.98;6.47;;;5.60;99.90;;;;;;10135016;28;20083;-68
2022/12/06 19:07:32;;;;;;;12.98;6.55;;;5.60;99.90;;;;;;10127717;28;20084;-68
2022/12/06 19:12:23;;;;;;;10.82;5.78;;;5.90;99.90;;;;;;10137265;28;20478;-68
2022/12/06 19:17:14;;;;;;;13.18;6.63;;;5.80;99.90;;;;;;10137091;28;20036;-73
2022/12/06 19:22:06;;;;;;;12.95;6.32;;;5.80;99.90;;;;;;10137629;28;20023;-68
2022/12/06 19:26:57;;;;;;;15.80;7.60;;;5.90;99.90;;;;;;10136954;28;20410;-66
2022/12/06 19:31:47;;;;;;;17.13;7.82;;;5.90;99.90;;;;;;10134101;28;20123;-69
2022/12/06 19:36:38;;;;;;;12.95;6.65;;;5.90;99.90;;;;;;10135467;28;20079;-72
2022/12/06 19:41:29;;;;;;;15.40;6.95;;;5.80;99.90;;;;;;10133565;28;20039;-70
2022/12/06 19:46:24;;;;;;;13.48;6.88;;;5.90;99.90;;;;;;10121002;28;20135;-73
2022/12/06 19:51:16;;;;;;;11.07;7.00;;;5.90;99.90;;;;;;10128030;28;20075;-73
2022/12/06 19:56:09;;;;;;;11.48;6.22;;;5.80;99.90;;;;;;10138482;28;20049;-70
2022/12/06 20:01:07;;;;;;;12.93;6.25;;;5.70;99.90;;;;;;10121098;28;20103;-67
2022/12/06 20:06:07;;;;;;;14.93;7.07;;;5.70;99.90;;;;;;10138402;28;20036;-67
2022/12/06 20:11:02;;;;;;;11.95;6.70;;;5.60;99.90;;;;;;10126718;28;20036;-67
2022/12/06 20:15:57;;;;;;;13.90;6.13;;;5.70;99.90;;;;;;10132816;28;20495;-73
2022/12/06 20:20:48;;;;;;;12.67;6.67;;;5.70;99.90;;;;;;10132843;28;20047;-78
2022/12/06 20:25:40;;;;;;;13.23;7.65;;;5.70;99.90;;;;;;10143346;28;20100;-73
2022/12/06 20:30:32;;;;;;;11.20;6.65;;;5.70;99.90;;;;;;10143337;28;20052;-76
2022/12/06 20:35:25;;;;;;;11.57;7.82;;;5.70;99.90;;;;;;10137324;28;20040;-75
2022/12/06 20:40:16;;;;;;;10.15;5.60;;;5.60;99.90;;;;;;10133963;28;20021;-70
2022/12/06 20:45:07;;;;;;;13.85;6.88;;;5.70;99.90;;;;;;10139239;28;20437;-68
2022/12/06 20:49:58;;;;;;;11.50;6.15;;;5.80;99.90;;;;;;10142098;28;20029;-70
2022/12/06 20:54:49;;;;;;;13.77;6.75;;;5.80;99.90;;;;;;10141911;28;20049;-70
2022/12/06 20:59:40;;;;;;;10.38;5.50;;;5.80;99.90;;;;;;10141835;28;20088;-67
2022/12/06 21:04:31;;;;;;;13.45;6.57;;;5.90;99.90;;;;;;10142567;28;20028;-67
2022/12/06 21:09:22;;;;;;;12.93;7.13;;;5.90;99.90;;;;;;10140797;28;20039;-68
2022/12/06 21:14:14;;;;;;;12.20;5.97;;;5.80;99.90;;;;;;10139680;28;20023;-66
2022/12/06 21:19:08;;;;;;;11.43;5.70;;;5.80;99.90;;;;;;10120756;28;20071;-66
2022/12/06 21:23:59;;;;;;;11.73;6.25;;;5.70;99.90;;;;;;10128187;28;20029;-67
2022/12/06 21:28:53;;;;;;;13.25;5.40;;;5.70;99.90;;;;;;10110630;28;20122;-66
2022/12/06 21:33:44;;;;;;;14.35;6.65;;;5.90;99.90;;;;;;10135700;28;20021;-66
2022/12/06 21:38:35;;;;;;;20.33;7.55;;;5.90;99.90;;;;;;10123060;28;20047;-66
2022/12/06 21:43:25;;;;;;;13.18;6.15;;;5.90;99.90;;;;;;10131750;28;20017;-67
2022/12/06 21:48:16;;;;;;;12.55;5.82;;;5.80;99.90;;;;;;10140489;28;20048;-67
2022/12/06 21:53:07;;;;;;;13.55;6.45;;;5.80;99.90;;;;;;10139777;28;20033;-68
2022/12/06 21:57:57;;;;;;;11.88;6.45;;;5.80;99.90;;;;;;10140283;28;20151;-67
2022/12/06 22:02:51;;;;;;;14.05;6.13;;;5.80;99.90;;;;;;10139888;28;20104;-67
2022/12/06 22:07:42;;;;;;;14.68;6.38;;;5.90;99.90;;;;;;10139818;28;20071;-67
2022/12/06 22:12:32;;;;;;;14.23;6.03;;;5.90;99.90;;;;;;10140055;28;20024;-67
2022/12/06 22:17:23;;;;;;;13.05;5.28;;;6.00;99.90;;;;;;10137452;28;20090;-68
2022/12/06 22:22:14;;;;;;;12.20;7.13;;;5.90;99.90;;;;;;10139011;28;20507;-66
2022/12/06 22:27:05;;;;;;;10.55;6.03;;;5.80;99.90;;;;;;10142464;28;20042;-66
2022/12/06 22:31:55;;;;;;;12.90;7.15;;;5.80;99.90;;;;;;10139044;28;20031;-66
2022/12/06 22:36:46;;;;;;;16.70;7.53;;;5.70;99.90;;;;;;10138587;28;20445;-67
2022/12/06 22:41:37;;;;;;;13.57;5.93;;;5.80;99.90;;;;;;10133796;28;20055;-68
2022/12/06 22:46:29;;;;;;;12.50;6.45;;;5.70;99.90;;;;;;10139035;28;20149;-67
2022/12/06 22:51:22;;;;;;;15.40;6.40;;;5.70;99.90;;;;;;10137527;28;20060;-68
2022/12/06 22:56:14;;;;;;;13.95;7.10;;;5.70;99.90;;;;;;10120274;28;20360;-68
2022/12/06 23:01:12;;;;;;;12.95;6.65;;;5.70;99.90;;;;;;10139602;28;20033;-67
2022/12/06 23:06:03;;;;;;;13.52;5.93;;;5.70;99.90;;;;;;10133936;28;20035;-67
2022/12/06 23:11:09;;;;;;;10.70;5.60;;;5.70;99.90;;;;;;10137125;28;20072;-68
2022/12/06 23:16:02;;;;;;;10.88;5.97;;;5.70;99.90;;;;;;10134102;28;20509;-67
2022/12/06 23:21:17;;;;;;;16.40;7.68;;;5.80;99.90;;;;;;10137410;28;20028;-66
2022/12/06 23:26:11;;;;;;;18.55;8.57;;;5.60;99.90;;;;;;10124045;28;20031;-67
2022/12/06 23:31:08;;;;;;;11.30;5.50;;;5.60;99.90;;;;;;10136572;28;20430;-67
2022/12/06 23:36:12;;;;;;;10.18;6.55;;;5.50;99.90;;;;;;10137277;28;20025;-66
2022/12/06 23:41:08;;;;;;;10.30;5.57;;;5.40;99.90;;;;;;10136534;28;20033;-66
2022/12/06 23:45:58;;;;;;;14.70;8.00;;;5.40;99.90;;;;;;10136627;28;20086;-66
2022/12/06 23:51:01;;;;;;;10.48;5.03;;;5.40;99.90;;;;;;10136595;28;20445;-65
2022/12/06 23:55:51;;;;;;;14.93;7.60;;;5.40;99.90;;;;;;10138248;28;20048;-65
